Date,TemperatureHighF,TemperatureAvgF,TemperatureLowF,DewpointHighF,DewpointAvgF,DewpointLowF,HumidityHigh,HumidityAvg,HumidityLow,PressureMaxIn,PressureMinIn,WindSpeedMaxMPH,WindSpeedAvgMPH,GustSpeedMaxMPH,PrecipitationSumIn
2013-1-1,32.7,25.9,16.5,26.7,20.6,10.3,86,80,71,30.12,29.99,4,0,4,0.02
2013-1-2,19.5,12.1,1.9,10.8,4.8,-3.5,83,72,63,30.20,30.09,7,0,7,0.00
2013-1-3,28.9,18.6,8.4,23.2,12.2,2.3,79,76,73,30.22,30.10,8,1,8,0.00
2013-1-4,28.2,20.8,13.6,19.6,14.3,8.6,81,76,69,30.29,30.19,10,2,10,0.00
2013-1-5,33.6,25.0,14.2,28.7,19.7,9.8,86,80,73,30.31,30.08,8,1,8,0.00
2013-1-6,34.3,29.2,18.3,29.6,23.9,-4.1,83,81,76,30.34,29.98,11,2,11,0.00
2013-1-7,34.1,23.1,11.5,25.9,17.4,7.2,86,79,71,30.43,30.19,8,0,8,0.00
2013-1-8,36.9,27.4,17.6,28.7,21.5,13.1,87,78,71,30.27,30.17,6,0,6,0.00
2013-1-9,45.9,38.0,28.0,36.8,30.6,22.4,84,75,65,30.51,30.13,11,2,11,0.00
2013-1-10,38.8,31.7,24.6,35.0,25.5,19.4,86,78,70,30.53,30.05,8,2,8,0.00
2013-1-11,53.5,47.6,38.8,51.2,43.6,35.0,92,86,77,30.06,29.77,14,2,14,0.00
2013-1-12,57.7,49.2,40.6,51.3,44.9,37.3,92,85,76,29.99,29.75,8,0,8,0.00
2013-1-13,51.4,34.5,21.7,47.9,31.4,10.1,90,89,87,30.20,29.75,58,1,58,0.00
2013-1-14,21.6,17.5,14.5,18.2,13.5,10.7,87,85,83,30.47,30.20,0,0,0,0.00
2013-1-15,27.5,20.9,14.4,22.1,15.9,10.7,88,81,73,30.42,30.13,5,0,5,0.00
2013-1-16,33.9,27.3,21.0,25.8,20.6,16.3,86,76,63,30.13,29.93,14,2,14,0.00
2013-1-17,35.4,29.4,19.8,30.8,21.8,12.2,86,73,61,30.40,30.05,7,0,7,0.00
2013-1-18,37.4,27.5,17.8,25.8,18.4,11.7,81,69,56,30.46,30.09,14,3,14,0.00
2013-1-19,47.4,40.3,35.8,34.4,29.4,25.8,73,65,56,30.09,29.83,20,5,20,0.00
2013-1-20,41.5,24.3,18.4,33.2,12.3,5.7,72,60,55,30.27,29.85,17,4,17,0.00
2013-1-21,19.6,13.2,7.0,8.2,1.9,-5.2,72,60,51,30.25,30.10,18,4,18,0.00
2013-1-22,13.3,7.5,2.7,1.0,-3.7,-7.0,70,60,52,30.37,30.24,21,2,21,0.00
2013-1-23,19.8,13.8,8.4,11.0,3.3,-2.7,70,62,56,30.34,30.10,10,1,10,0.00
2013-1-24,21.0,15.9,7.5,10.6,5.9,0.4,76,65,53,30.60,30.16,7,0,7,0.00
2013-1-25,24.6,20.3,17.1,18.8,12.5,8.1,78,71,63,30.43,30.02,5,0,5,0.00
2013-1-26,28.2,24.0,21.0,23.0,16.3,14.0,87,72,66,30.44,30.08,8,0,8,0.00
2013-1-27,33.8,25.2,18.3,30.2,18.8,11.8,87,76,71,30.43,30.07,8,1,8,0.00
2013-1-28,48.0,42.4,33.8,45.6,39.8,30.2,91,90,87,30.09,29.95,29,2,29,0.00
2013-1-29,58.6,51.3,43.2,54.9,48.9,-17.1,93,91,88,29.98,29.41,16,2,16,0.00
2013-1-30,60.6,43.8,27.7,56.4,40.8,23.5,93,89,84,29.56,29.26,16,4,16,0.00
2013-1-31,27.5,18.4,8.6,23.5,12.4,1.7,85,77,70,30.09,29.56,21,6,21,0.00
2013-2-1,14.7,9.2,3.9,8.0,2.0,-2.6,75,72,68,30.38,30.09,18,4,18,0.00
2013-2-2,25.2,19.8,14.7,20.3,14.8,7.9,83,81,74,30.25,29.98,10,2,10,0.00
2013-2-3,21.4,15.7,10.6,14.6,10.2,5.5,83,79,74,30.09,29.96,12,2,12,0.00
2013-2-4,32.2,23.3,13.8,25.5,18.0,8.8,85,80,76,30.08,29.83,8,0,8,0.00
2013-2-5,32.4,24.4,14.2,27.1,19.3,9.7,86,81,74,30.04,29.82,10,1,10,0.00
2013-2-6,36.3,30.5,27.3,28.1,23.2,18.4,81,74,63,30.28,30.04,6,1,6,0.00
2013-2-7,46.6,37.8,29.5,36.9,30.7,24.4,84,76,68,30.21,29.81,8,1,8,0.00
2013-2-8,39.0,31.7,26.8,34.9,26.2,20.8,86,80,75,30.36,29.81,107,1,107,0.00
2013-2-9,38.5,28.3,19.8,26.6,20.8,14.8,83,73,61,30.42,30.19,8,1,8,0.00
2013-2-10,46.9,38.0,30.9,42.9,31.5,22.9,88,77,72,30.19,29.67,24,2,24,0.00
2013-2-11,47.1,35.8,27.3,44.1,28.3,18.9,89,74,69,30.03,29.66,20,6,20,0.00
2013-2-12,33.6,30.3,28.2,25.3,22.7,21.0,76,73,68,30.13,29.95,16,3,16,0.00
2013-2-13,45.6,31.4,23.9,32.5,23.6,18.0,81,73,58,29.96,29.77,7,1,7,0.00
2013-2-14,39.9,36.0,31.3,35.0,29.0,24.7,86,76,70,29.99,29.77,17,4,17,0.00
2013-2-15,33.4,27.7,21.2,26.1,20.3,13.5,78,73,65,30.18,29.97,8,0,8,0.00
2013-2-16,22.8,20.1,14.9,17.0,11.8,5.3,78,70,59,30.15,30.08,9,1,9,0.18
2013-2-17,25.9,16.8,11.3,16.2,8.7,4.2,75,70,61,30.23,30.14,4,0,4,0.00
2013-2-18,50.5,42.8,26.4,39.0,33.0,15.4,83,68,59,30.04,29.56,12,3,12,0.00
2013-2-19,43.5,25.6,14.5,39.4,19.9,7.2,86,79,72,30.11,29.53,14,5,14,0.00
2013-2-20,21.4,17.2,10.8,13.8,9.6,3.7,77,72,67,30.33,30.11,8,2,8,0.00
2013-2-21,26.8,23.5,19.4,18.3,15.8,11.3,78,72,69,30.36,30.07,12,2,12,0.00
2013-2-22,34.0,28.3,22.6,30.4,24.5,17.4,89,85,78,30.07,29.87,11,2,11,0.00
2013-2-23,30.0,26.9,23.7,26.3,21.0,16.4,86,78,72,30.00,29.93,10,2,10,0.00
2013-2-24,38.7,29.0,25.3,26.9,21.2,17.5,77,73,62,30.16,29.98,6,1,6,0.00
2013-2-25,41.9,34.5,21.4,29.2,24.9,15.5,82,68,60,30.20,29.97,6,1,6,0.00
2013-2-26,33.4,31.1,25.1,30.2,26.0,-1.8,88,82,22,29.97,29.46,22,3,22,0.00
2013-2-27,33.3,31.2,25.9,30.3,28.4,23.3,90,89,88,29.67,29.47,9,2,9,0.00
2013-2-28,35.6,31.9,28.2,32.2,29.1,25.6,91,89,87,29.99,29.64,7,1,7,0.00
2013-3-1,32.2,29.6,25.0,27.9,25.5,20.9,88,84,79,30.11,29.97,5,0,5,0.00
2013-3-2,32.7,26.7,24.0,23.6,19.7,16.3,80,75,69,30.12,30.07,5,0,5,0.00
2013-3-3,33.1,26.8,21.7,23.0,19.3,14.1,81,73,64,30.11,30.05,8,1,8,0.00
2013-3-4,35.4,26.3,16.9,25.0,17.9,11.3,83,71,59,30.16,30.02,5,0,5,0.00
2013-3-5,32.5,29.5,24.9,27.5,24.3,9.5,85,81,42,30.04,29.70,8,2,8,0.18
2013-3-6,32.9,28.9,26.2,27.5,24.6,21.6,86,84,79,30.26,29.80,6,0,6,0.00
2013-3-7,35.4,31.7,6.1,31.3,26.7,0.4,87,81,73,30.41,30.25,5,0,5,0.06
2013-3-8,36.3,26.5,17.4,30.5,19.7,12.5,86,76,60,30.49,30.39,3,0,3,0.00
2013-3-9,39.6,31.9,28.0,32.9,24.5,20.4,78,74,66,30.39,29.99,58,1,58,0.00
2013-3-10,60.7,49.2,39.9,45.2,38.5,32.4,77,67,55,29.96,29.76,13,2,13,0.00
2013-3-11,52.7,43.0,33.6,45.2,37.9,29.4,89,82,64,29.83,29.61,16,3,16,0.00
2013-3-12,37.0,31.8,26.4,29.5,25.5,19.6,85,78,66,30.01,29.83,13,5,13,0.00
2013-3-13,32.9,27.0,22.0,25.7,19.1,13.0,81,72,61,30.31,30.00,14,4,14,0.00
2013-3-14,24.6,24.1,22.8,15.7,15.1,14.5,70,68,66,30.33,30.30,5,0,5,0.00
2013-3-15,47.8,39.5,28.2,37.9,32.9,23.7,85,77,67,30.14,29.79,7,1,7,0.18
2013-3-16,42.1,36.4,31.1,37.9,32.3,-2.1,87,85,83,30.10,29.64,3,0,3,0.00
2013-3-17,36.9,30.1,24.8,27.1,23.1,16.5,83,75,65,30.20,30.05,8,2,8,0.00
2013-3-18,37.2,30.9,26.6,34.2,26.8,22.1,89,85,75,30.05,29.56,22,3,22,0.00
2013-3-19,37.8,28.2,21.6,24.7,17.5,12.4,77,64,51,30.08,29.81,19,7,19,0.00
2013-3-20,31.6,25.4,21.4,18.1,12.1,6.4,66,57,49,30.08,30.00,11,4,11,0.00
2013-3-21,36.7,24.4,15.4,18.8,12.0,7.4,71,60,47,30.03,29.98,12,3,12,0.18
2013-3-22,44.6,29.3,17.2,25.8,16.0,9.6,77,58,44,30.07,30.00,9,1,9,0.00
2013-3-23,45.9,33.3,24.6,29.2,19.9,12.7,69,58,51,30.12,29.97,5,0,5,0.00
2013-3-24,35.8,30.3,26.0,24.5,21.2,17.6,80,69,62,29.99,29.54,13,2,13,0.00
2013-3-25,35.8,30.4,27.5,29.2,25.1,22.6,85,81,75,30.00,29.56,7,0,7,0.00
2013-3-26,41.2,33.4,30.6,30.8,26.7,24.5,85,76,62,30.23,29.99,9,2,9,0.00
2013-3-27,41.4,33.3,25.7,31.5,25.0,20.7,83,72,59,30.32,30.23,12,2,12,0.00
2013-3-28,49.8,35.6,25.5,34.4,24.7,18.3,79,65,50,30.36,30.29,9,1,9,0.00
2013-3-29,53.4,39.4,28.4,38.2,27.5,21.8,82,63,46,30.34,30.23,7,0,7,0.00
2013-3-30,55.2,41.2,26.4,37.1,28.2,18.3,77,60,47,30.26,29.94,8,1,8,0.00
2013-3-31,60.1,48.3,43.0,41.4,37.2,29.6,84,66,49,29.94,29.73,13,2,13,0.00
2013-4-1,43.5,36.1,27.7,29.7,22.3,13.1,69,58,46,30.17,29.84,10,1,10,0.00
2013-4-2,46.6,32.2,20.8,29.4,16.2,10.3,72,53,36,30.29,30.16,14,1,14,0.00
2013-4-3,47.8,34.2,20.8,28.1,15.5,8.6,65,47,34,30.44,30.29,8,0,8,0.00
2013-4-4,58.6,40.5,28.2,30.2,21.0,13.1,61,47,32,30.35,30.00,8,1,8,0.00
2013-4-5,57.0,43.0,31.8,35.4,24.9,19.3,66,50,34,30.20,29.98,7,1,7,0.00
2013-4-6,65.5,48.3,34.7,40.8,29.4,19.3,58,49,37,30.18,29.79,20,3,20,0.00
2013-4-7,68.0,57.5,50.9,44.8,40.9,35.7,73,55,42,29.99,29.74,15,4,15,0.00
2013-4-8,73.6,58.0,-22.0,56.4,45.7,-32.3,81,64,52,30.00,29.80,19,3,19,0.00
2013-4-9,79.5,64.2,52.9,59.8,51.8,43.8,74,65,50,30.03,29.88,17,3,17,0.00
2013-4-10,71.1,60.8,48.0,65.2,54.5,34.2,89,80,70,29.92,29.80,10,1,10,0.00
2013-4-11,51.8,46.1,41.9,49.2,43.5,39.3,91,91,89,29.89,29.59,9,1,9,0.00
2013-4-12,43.3,38.1,32.0,40.9,33.9,26.8,91,85,77,29.91,29.60,15,5,15,0.00
2013-4-13,43.5,37.9,29.8,34.7,32.0,24.8,87,79,68,30.02,29.91,12,3,12,0.00
2013-4-14,67.3,49.2,38.1,51.9,40.3,32.5,84,72,54,30.05,29.84,9,2,9,0.00
2013-4-15,64.2,56.7,49.8,56.5,48.8,42.7,82,75,64,29.96,29.84,10,2,10,0.00
2013-4-16,59.5,48.6,43.1,53.4,43.8,38.1,87,84,77,30.24,29.91,10,0,10,0.00
2013-4-17,59.5,48.8,43.7,55.2,44.4,39.8,87,85,82,30.26,29.94,10,2,10,0.00
2013-4-18,71.2,57.9,46.6,65.1,54.4,42.6,92,88,78,29.94,29.58,18,2,18,0.25
2013-4-19,59.5,38.1,31.1,57.2,33.8,7.4,92,85,77,29.93,29.55,13,5,13,0.65
2013-4-20,43.9,36.6,11.1,33.1,28.1,6.9,85,72,56,30.44,29.92,9,3,9,0.00
2013-4-21,50.2,34.0,27.1,32.1,23.9,19.6,75,67,48,30.55,30.40,9,0,9,0.18
2013-4-22,64.9,48.9,32.2,41.1,34.2,25.5,80,59,39,30.40,30.13,9,1,9,0.00
2013-4-23,61.7,53.7,44.4,53.0,45.1,34.9,89,73,58,30.14,29.83,13,2,13,0.00
2013-4-24,46.0,39.1,30.9,42.7,34.8,28.0,89,85,72,30.21,29.83,9,1,9,0.00
2013-4-25,52.5,41.8,34.0,37.5,31.5,24.8,85,68,49,30.38,30.18,15,3,15,0.00
2013-4-26,61.0,46.3,32.2,42.4,34.6,26.6,83,65,47,30.44,30.34,8,1,8,0.00
2013-4-27,66.7,53.0,38.1,47.6,39.7,32.2,83,62,43,30.36,30.06,11,1,11,0.00
2013-4-28,58.8,54.3,50.0,55.6,49.9,46.9,90,85,73,30.06,29.85,3,0,3,0.49
2013-4-29,67.6,58.3,54.3,56.5,52.2,49.5,90,81,65,30.00,29.90,7,1,7,0.41
2013-4-30,77.7,64.2,51.6,62.8,54.7,46.9,86,72,59,30.05,29.94,13,2,13,0.00
2013-5-1,82.0,68.3,52.9,61.4,54.4,46.9,83,63,45,30.19,30.04,8,1,8,0.00
2013-5-2,75.5,67.8,58.5,57.8,53.7,49.8,77,61,50,30.22,30.09,9,1,9,0.00
2013-5-3,75.2,67.2,60.4,58.8,54.0,45.9,75,63,48,30.10,29.95,13,2,13,0.00
2013-5-4,70.5,63.1,58.6,48.2,44.1,40.3,63,51,38,30.04,29.97,10,1,10,0.00
2013-5-5,64.5,59.4,53.2,49.2,46.6,43.1,70,63,52,30.03,29.98,8,1,8,0.00
2013-5-6,67.1,61.1,55.0,53.5,47.8,42.7,68,62,54,30.03,29.95,8,1,8,0.00
2013-5-7,72.9,64.7,57.9,57.0,52.3,49.5,76,65,52,30.05,29.98,4,0,4,0.00
2013-5-8,75.7,63.3,52.9,59.3,51.6,46.0,80,67,49,30.05,29.97,4,0,4,0.04
2013-5-9,70.7,61.4,52.2,59.9,53.1,47.3,86,75,50,30.03,29.91,5,0,5,0.18
2013-5-10,64.9,60.5,57.3,59.0,56.0,51.8,89,85,75,29.92,29.83,8,1,8,0.37
2013-5-11,58.8,47.7,43.7,51.7,42.4,36.7,86,82,75,30.02,29.84,4,1,4,0.02
2013-5-12,52.9,44.5,36.7,37.2,34.3,30.8,81,68,55,30.14,30.02,2,0,2,0.02
2013-5-13,61.2,53.9,34.3,38.6,33.2,28.2,81,47,37,30.19,30.11,7,0,7,0.18
2013-5-14,83.5,65.2,49.6,61.7,47.6,30.9,62,53,47,30.12,29.78,13,2,13,0.00
2013-5-15,83.1,75.3,69.1,61.2,56.2,49.7,63,52,43,29.86,29.76,10,2,10,0.18
2013-5-16,79.0,68.4,57.6,58.9,51.6,45.5,80,57,37,29.99,29.84,4,0,4,0.02
2013-5-17,72.8,62.6,55.4,62.0,53.3,46.8,83,72,58,30.10,29.99,6,0,6,0.14
2013-5-18,76.6,64.6,56.1,64.1,55.5,48.1,83,73,62,30.12,30.00,5,0,5,0.03
2013-5-19,83.5,71.0,58.3,66.4,59.7,50.4,79,68,55,30.03,29.87,8,0,8,0.00
2013-5-20,83.1,75.5,68.7,69.6,65.4,48.5,87,71,58,29.95,29.84,8,1,8,0.00
2013-5-21,84.0,73.5,64.9,66.3,61.9,57.6,84,68,48,29.87,29.76,29,2,29,0.02
2013-5-22,73.8,67.4,58.0,63.5,59.6,52.3,86,76,66,29.81,29.72,10,1,10,0.93
2013-5-23,61.5,54.7,47.5,57.5,50.6,15.3,89,86,82,30.20,29.79,7,0,7,0.04
2013-5-24,62.4,50.5,41.5,45.0,41.0,37.3,86,71,52,30.38,30.19,4,0,4,0.00
2013-5-25,61.2,51.5,41.2,47.1,40.6,33.5,80,67,56,30.40,30.26,3,0,3,0.00
2013-5-26,67.6,57.8,46.0,49.1,43.3,38.8,78,60,45,30.33,30.19,7,0,7,0.00
2013-5-27,62.6,55.5,49.6,60.0,50.0,45.1,91,82,62,30.21,29.94,7,0,7,1.19
2013-5-28,77.5,69.7,61.3,68.6,63.7,59.0,92,82,73,29.97,29.88,8,2,8,0.38
2013-5-29,81.7,74.0,66.6,66.1,62.9,43.2,78,69,57,30.04,29.93,9,1,9,0.00
2013-5-30,83.3,74.3,66.2,68.9,64.2,60.2,83,71,58,30.08,29.95,10,2,10,0.00
2013-5-31,74.8,70.2,63.2,68.3,64.1,58.3,89,81,72,30.02,29.87,9,2,9,0.21
2013-6-1,71.4,67.4,62.4,67.3,62.1,55.9,92,83,76,29.91,29.77,9,2,9,0.77
2013-6-2,67.6,61.4,56.1,61.7,55.7,22.0,87,82,20,30.01,29.77,8,0,8,0.02
2013-6-3,65.5,56.6,45.7,48.8,45.4,40.8,84,67,53,30.12,30.04,14,0,14,0.00
2013-6-4,71.2,59.7,47.1,51.1,46.4,40.6,82,63,47,30.19,30.10,6,0,6,0.00
2013-6-5,75.8,65.1,54.7,55.5,49.6,43.7,69,58,47,30.14,29.93,6,0,6,0.00
2013-6-6,73.6,64.0,58.6,57.5,50.8,45.0,70,62,54,29.96,29.84,2,0,2,0.00
2013-6-7,71.4,63.7,58.8,57.3,53.4,50.8,80,69,59,29.94,29.87,3,0,3,0.00
2013-6-8,75.9,64.9,52.9,57.5,52.1,46.9,84,65,47,30.04,29.93,6,0,6,0.00
2013-6-9,79.7,70.3,64.2,63.4,58.8,52.0,83,68,47,30.07,29.88,7,1,7,0.00
2013-6-10,67.6,64.7,62.4,63.0,61.2,59.2,91,88,83,29.89,29.79,5,0,5,0.82
2013-6-11,80.8,71.0,61.3,66.2,62.8,57.3,88,76,61,29.99,29.85,6,0,6,0.22
2013-6-12,68.7,67.9,67.3,63.3,63.0,62.6,86,84,83,29.92,29.88,0,0,0,0.00
2013-6-13,70.9,64.9,59.4,62.8,55.7,52.0,91,73,65,30.01,29.65,5,0,5,0.70
2013-6-14,74.1,63.7,55.9,60.7,55.5,50.6,86,75,62,30.12,29.99,2,0,2,0.00
2013-6-15,71.4,64.9,58.1,64.4,58.6,53.0,88,80,69,30.13,29.96,3,0,3,0.00
2013-6-16,78.6,71.8,66.2,68.4,64.5,60.5,88,78,70,29.98,29.94,8,1,8,0.02
2013-6-17,81.5,74.9,68.7,68.9,65.7,63.2,90,74,56,29.99,29.91,3,0,3,0.00
2013-6-18,76.6,71.8,65.1,65.4,61.1,57.4,84,69,62,30.06,29.93,2,0,2,0.00
2013-6-19,75.7,68.8,58.1,58.7,55.0,50.9,78,62,53,30.17,30.05,6,0,6,0.00
2013-6-20,81.5,72.3,59.2,65.3,60.0,51.8,79,66,54,30.21,30.14,2,0,2,0.00
2013-6-21,84.9,74.0,63.3,65.5,60.7,54.7,82,65,45,30.22,30.00,7,0,7,0.00
2013-6-22,81.0,74.5,69.1,71.3,65.8,61.8,83,74,60,30.15,30.03,11,0,11,0.00
2013-6-23,86.2,73.7,66.6,71.2,65.1,61.9,89,75,55,30.14,30.03,10,1,10,0.00
2013-6-24,84.4,74.1,66.7,71.2,65.8,61.3,88,76,60,30.14,29.98,7,1,7,0.47
2013-6-25,86.5,74.7,65.7,72.5,67.1,62.0,91,78,61,30.05,29.87,11,1,11,0.02
2013-6-26,75.8,69.9,63.5,71.3,65.8,59.9,91,87,74,29.94,29.77,7,0,7,0.83
2013-6-27,79.0,71.8,70.2,71.1,67.8,65.1,92,87,77,29.82,29.71,5,0,5,0.49
2013-6-28,74.5,68.9,61.0,66.7,62.4,54.0,88,80,63,29.72,29.64,4,0,4,0.04
2013-6-29,68.5,65.0,62.4,64.5,60.4,55.6,88,85,78,29.72,29.60,0,0,0,0.02
2013-6-30,67.8,64.2,58.2,63.0,60.5,55.8,92,88,83,29.94,29.74,2,0,2,0.72
2013-7-1,68.7,64.6,61.5,61.5,59.4,55.9,88,83,75,30.03,29.92,4,0,4,0.00
2013-7-2,72.7,64.1,57.9,67.9,59.6,54.6,90,85,78,30.06,30.00,1,0,1,0.06
2013-7-3,75.2,67.9,63.5,66.8,62.4,58.0,93,83,68,30.11,30.02,9,0,9,0.00
2013-7-4,72.7,68.7,62.6,63.4,60.1,56.5,89,74,66,30.18,30.10,1,0,1,0.00
2013-7-5,78.8,74.2,68.0,67.8,65.0,60.7,82,73,67,30.14,30.08,6,0,6,0.00
2013-7-6,73.9,70.3,66.3,68.5,65.4,60.9,90,84,79,30.14,30.04,6,0,6,0.00
2013-7-7,79.5,71.8,64.8,70.3,65.7,61.8,91,81,70,30.11,30.02,6,1,6,0.18
2013-7-8,80.8,74.1,68.4,73.7,68.4,63.5,89,83,77,30.11,30.02,8,0,8,0.00
2013-7-9,81.0,76.3,73.2,74.5,70.9,68.5,87,83,76,30.06,30.03,5,0,5,0.00
2013-7-10,80.6,72.0,58.6,75.7,67.2,53.7,91,85,74,30.04,29.86,8,1,8,0.00
2013-7-11,73.8,66.1,57.0,62.4,58.1,53.8,90,76,61,30.10,30.01,2,0,2,0.18
2013-7-12,63.1,60.9,59.2,55.4,54.2,53.1,80,78,76,30.10,30.08,0,0,0,0.00
2013-7-13,79.9,71.5,60.3,67.5,62.5,54.8,86,73,65,30.18,30.13,7,0,7,0.18
2013-7-14,84.4,80.4,75.9,74.0,70.7,66.2,79,72,68,30.24,30.20,1,0,1,0.00
2013-7-15,86.5,80.1,72.3,73.7,70.9,67.7,86,74,64,30.31,30.24,1,0,1,0.00
2013-7-16,85.4,77.9,70.7,73.0,70.2,66.6,87,78,64,30.35,30.30,1,0,1,0.00
2013-7-17,88.5,72.6,31.8,74.2,65.9,27.5,87,80,62,30.35,30.25,3,0,3,0.00
2013-7-18,89.4,84.8,78.4,75.6,73.3,71.0,79,69,62,30.12,30.05,0,0,0,0.00
2013-7-19,89.5,82.4,73.6,75.7,72.3,54.6,87,72,63,30.06,29.86,9,1,9,0.00
2013-7-20,84.4,77.8,73.0,72.7,70.2,66.5,86,78,67,29.95,29.83,7,0,7,0.08
2013-7-21,83.3,74.4,66.0,70.1,66.1,61.3,87,76,61,30.01,29.91,8,0,8,0.00
2013-7-22,75.9,70.7,65.1,69.7,66.0,62.2,91,85,80,29.92,29.81,2,0,2,0.98
2013-7-23,79.5,71.6,66.4,69.7,65.1,57.1,91,80,68,29.88,29.71,5,0,5,0.00
2013-7-24,70.9,63.6,53.4,56.8,52.8,48.1,83,68,59,30.06,29.99,0,0,0,0.00
2013-7-25,73.6,63.5,55.2,58.3,53.5,49.4,85,71,57,30.14,30.06,0,0,0,0.00
2013-7-26,75.9,71.4,62.2,62.0,60.0,54.9,83,68,60,30.13,29.97,1,0,1,0.00
2013-7-27,72.1,67.2,60.4,63.9,57.5,11.7,85,71,60,29.96,29.86,2,0,2,0.00
2013-7-28,68.5,59.9,51.8,54.6,49.5,45.7,81,69,57,30.03,29.93,10,0,10,0.00
2013-7-29,69.1,63.4,55.6,57.2,52.4,50.0,85,67,62,30.18,30.13,0,0,0,0.00
2013-7-30,71.0,69.0,67.5,61.6,57.9,54.5,76,68,61,30.23,30.14,1,0,1,0.00
2013-7-31,70.5,64.7,60.1,67.5,61.5,57.4,91,89,84,30.09,29.98,6,0,6,0.16
2013-8-1,76.3,69.0,63.0,62.7,60.8,56.8,90,76,62,30.02,29.97,0,0,0,0.17
2013-8-2,78.1,70.3,59.2,68.6,62.8,55.7,88,77,67,30.02,29.90,13,0,13,0.65
2013-8-3,73.4,67.0,58.8,65.3,60.3,52.3,92,79,69,30.11,29.98,1,0,1,0.71
2013-8-4,72.7,62.5,53.8,59.0,54.3,49.4,87,75,61,30.21,30.10,0,0,0,0.00
2013-8-5,72.1,64.4,57.6,63.2,57.0,52.4,85,77,65,30.16,29.98,0,0,0,0.00
2013-8-6,76.5,68.9,63.3,69.1,63.4,58.2,86,83,78,29.99,29.92,4,0,4,0.00
2013-8-7,81.5,73.5,68.5,73.0,68.3,65.0,91,84,75,29.95,29.88,6,0,6,0.00
2013-8-8,74.1,70.4,31.8,69.7,66.2,28.1,88,86,83,30.00,29.93,0,0,0,0.10
2013-8-9,78.8,71.6,65.3,67.5,63.6,60.0,89,77,63,30.07,29.99,0,0,0,0.00
2013-8-10,81.0,72.4,64.2,68.6,64.2,60.3,89,76,61,30.13,30.06,4,0,4,0.00
2013-8-11,79.5,70.0,62.8,65.9,61.2,57.5,86,74,60,30.15,30.08,0,0,0,0.00
2013-8-12,82.0,70.9,61.3,69.3,63.3,57.6,90,77,64,30.12,29.90,6,0,6,0.02
2013-8-13,71.4,64.6,57.0,64.8,55.1,46.5,86,72,55,30.13,29.91,5,0,5,0.00
2013-8-14,56.8,53.9,51.1,46.7,45.2,43.8,76,72,69,30.15,30.13,0,0,0,0.00
2013-8-15,71.4,66.5,58.3,54.9,53.2,50.4,75,63,54,30.16,30.13,0,0,0,0.00
2013-8-16,73.2,63.7,57.6,59.3,54.8,50.0,84,73,58,30.21,30.16,3,0,3,0.00
2013-8-17,75.9,64.8,55.9,60.9,55.4,50.3,84,72,57,30.26,30.18,0,0,0,0.00
2013-8-18,79.3,67.2,57.0,62.7,56.8,51.2,85,70,52,30.23,30.13,3,0,3,0.00
2013-8-19,81.7,68.6,57.9,65.8,59.2,52.8,87,73,56,30.17,30.09,3,0,3,0.00
2013-8-20,83.5,71.3,60.6,67.5,61.7,56.4,89,73,54,30.20,30.10,4,0,4,0.00
2013-8-21,84.4,72.4,64.2,70.6,64.3,59.3,87,76,60,30.19,30.05,4,0,4,0.00
2013-8-22,72.0,69.5,67.6,66.8,64.5,62.1,90,84,80,30.14,30.03,0,0,0,0.25
2013-8-23,79.5,69.7,62.2,65.8,62.1,58.0,90,78,62,30.19,30.10,0,0,0,0.00
2013-8-24,80.2,68.9,56.5,60.5,56.1,51.0,85,65,46,30.32,30.20,5,0,5,0.00
2013-8-25,84.7,71.3,58.3,65.4,59.7,52.5,87,68,50,30.33,30.23,29,0,29,0.00
2013-8-26,84.7,72.0,60.1,72.0,64.1,55.6,88,77,60,30.26,30.09,5,0,5,0.00
2013-8-27,88.3,77.5,70.9,76.2,69.7,65.8,86,77,65,30.10,29.95,0,0,0,0.00
2013-8-28,85.5,78.4,74.5,75.1,69.8,67.1,79,75,68,30.04,29.92,8,0,8,0.00
2013-8-29,84.9,74.9,69.3,70.7,66.9,63.5,86,77,60,30.10,30.03,5,0,5,0.00
2013-8-30,88.7,75.4,63.1,73.0,66.5,58.9,91,75,58,30.04,29.79,2,0,2,0.00
2013-8-31,77.5,71.8,67.2,70.8,66.3,62.3,90,83,73,29.92,29.79,4,0,4,0.49
2013-9-1,75.0,69.6,65.2,70.3,66.1,61.8,92,89,84,29.85,29.80,5,0,5,0.00
2013-9-2,77.5,70.5,66.7,68.4,63.6,58.4,91,80,62,29.96,29.79,5,0,5,0.00
2013-9-3,69.7,62.2,54.3,57.6,53.5,49.5,85,73,64,30.10,30.05,6,0,6,0.00
2013-9-4,79.3,71.6,57.0,61.6,58.2,50.9,80,64,54,30.17,30.08,0,0,0,0.00
2013-9-5,78.8,68.0,58.1,60.8,55.7,47.9,87,66,54,30.24,30.20,0,0,0,0.00
2013-9-6,79.3,64.0,50.7,58.0,50.5,43.8,81,63,45,30.28,30.10,0,0,0,0.00
2013-9-7,84.9,68.7,57.9,66.3,58.4,12.8,83,71,51,30.10,29.96,0,0,0,0.00
2013-9-8,77.7,73.6,63.5,68.0,64.4,58.9,86,73,68,30.04,29.98,0,0,0,0.00
2013-9-9,90.1,78.8,64.0,72.9,67.8,59.1,87,70,55,30.03,29.92,0,0,0,0.00
2013-9-10,91.9,83.3,73.2,72.8,67.7,63.3,88,61,44,30.10,30.05,0,0,0,0.00
2013-9-11,92.1,89.7,85.6,70.3,65.4,62.5,57,45,42,30.09,30.00,0,0,0,0.00
2013-9-12,78.1,70.3,64.5,66.9,63.3,58.7,90,79,58,30.03,29.88,0,0,0,0.41
2013-9-13,65.3,58.9,51.8,48.0,45.4,42.4,76,61,52,30.15,30.08,0,0,0,0.00
2013-9-14,67.1,61.3,54.5,44.9,42.8,39.4,63,51,43,30.22,30.12,0,0,0,0.00
2013-9-15,70.7,61.7,51.6,54.7,49.2,44.3,84,64,49,30.14,30.02,0,0,0,0.02
2013-9-16,63.0,61.4,56.5,53.8,53.3,52.3,86,75,71,30.31,30.21,0,0,0,0.00
2013-9-17,68.7,62.8,46.8,53.8,50.5,41.9,83,65,58,30.37,30.19,0,0,0,0.00
2013-9-18,78.6,71.7,56.8,62.1,57.9,49.3,79,63,51,30.15,30.04,0,0,0,0.00
2013-9-19,71.1,67.0,62.9,67.8,63.6,60.5,93,89,79,30.08,29.92,0,0,0,1.30
2013-9-20,73.6,69.5,64.4,69.0,65.5,59.5,91,87,79,29.95,29.82,0,0,0,0.35
2013-9-21,65.8,57.9,50.2,61.3,51.3,43.4,91,79,60,29.94,29.79,0,0,0,0.00
2013-9-22,65.1,54.2,48.0,50.0,45.7,42.7,88,74,57,30.07,29.94,29,0,29,0.00
2013-9-23,66.9,53.9,43.2,50.2,44.1,37.9,85,70,54,30.16,30.07,0,0,0,0.00
2013-9-24,68.5,56.1,45.7,51.7,45.7,39.9,83,69,53,30.13,29.97,0,0,0,0.00
2013-9-25,71.5,55.9,50.2,53.0,46.7,44.1,80,72,52,29.99,29.93,0,0,0,0.00
2013-9-26,75.4,60.1,49.6,57.1,49.9,43.9,85,70,52,30.11,29.98,0,0,0,0.00
2013-9-27,76.8,67.1,51.4,54.6,51.1,46.1,82,58,43,30.22,30.12,0,0,0,0.00
2013-9-28,80.2,63.1,50.4,56.5,51.2,44.6,85,67,43,30.18,30.03,0,0,0,0.00
2013-9-29,64.6,60.8,55.2,59.1,55.4,51.7,89,82,72,30.04,30.00,0,0,0,0.00
2013-9-30,71.2,62.8,57.7,59.7,55.7,52.6,87,78,67,30.00,29.96,0,0,0,0.00
2013-10-1,71.4,62.3,57.0,62.2,57.4,53.8,91,84,72,30.07,30.00,0,0,0,0.00
2013-10-2,77.9,68.2,22.8,68.0,61.9,19.5,91,81,71,30.12,30.05,0,0,0,0.00
2013-10-3,76.3,68.7,63.5,68.0,63.1,60.0,92,83,70,30.07,29.96,0,0,0,0.00
2013-10-4,83.1,74.3,66.7,68.4,65.2,62.4,88,74,59,30.06,29.99,0,0,0,0.00
2013-10-5,76.5,68.5,64.2,67.8,64.1,60.2,92,86,72,30.04,29.89,0,0,0,0.00
2013-10-6,66.4,57.9,46.6,63.6,54.8,40.8,93,90,78,29.91,29.74,0,0,0,0.43
2013-10-7,58.8,49.7,44.4,48.7,43.1,39.3,87,78,67,30.09,29.82,0,0,0,0.00
2013-10-8,69.6,59.4,46.8,51.6,47.1,41.9,89,65,52,30.27,30.16,0,0,0,0.00
2013-10-9,70.1,56.4,45.3,50.7,44.3,39.9,81,66,50,30.25,30.18,0,0,0,0.00
2013-10-10,71.8,71.8,71.8,52.2,52.2,52.2,50,50,50,30.14,30.14,0,0,0,0.00
2013-10-12,75.4,72.8,69.3,55.1,52.9,50.5,52,50,46,30.09,30.05,0,0,0,0.00
2013-10-13,68.2,63.6,61.1,46.0,43.0,41.3,50,47,44,30.34,30.31,0,0,0,0.00
2013-10-15,64.2,58.9,54.5,59.7,54.2,49.8,89,84,81,30.03,29.91,0,0,0,0.00
2013-10-16,62.8,52.6,10.6,59.2,43.0,0.9,88,70,64,29.97,29.90,0,0,0,0.00
2013-10-17,50.5,45.4,40.8,45.3,40.8,36.6,89,84,78,29.95,29.87,0,0,0,0.08
2013-10-18,61.9,46.8,39.0,46.8,39.3,35.2,90,76,55,30.00,29.92,0,0,0,0.00
2013-10-19,50.7,43.2,38.0,38.4,36.2,33.6,88,77,60,29.98,29.86,0,0,0,0.22
2013-10-20,62.8,50.2,41.4,44.2,38.4,33.8,78,65,50,29.97,29.88,0,0,0,0.00
2013-10-21,54.9,50.7,43.7,42.2,40.8,37.7,79,69,62,29.93,29.91,0,0,0,0.00
2013-10-22,42.0,38.8,30.0,30.6,27.6,23.3,77,64,53,30.04,29.94,0,0,0,0.06
2013-10-23,43.2,38.2,35.1,34.7,30.4,27.8,87,74,61,30.04,29.87,0,0,0,0.17
2013-10-24,40.2,36.1,31.3,32.4,28.2,23.8,82,73,63,30.18,30.03,0,0,0,0.00
2013-10-25,48.0,38.2,28.9,30.4,26.7,22.0,78,64,50,30.42,30.23,0,0,0,0.00
2013-10-26,54.7,42.8,37.6,37.7,29.7,22.5,64,60,29,30.18,29.89,0,0,0,0.00
2013-10-27,54.5,47.6,34.0,34.5,31.7,29.0,84,55,45,30.11,30.04,0,0,0,0.00
2013-10-28,58.8,54.7,49.9,38.0,35.3,30.8,58,48,45,30.26,30.24,0,0,0,0.00
2013-10-30,62.4,60.8,59.9,59.8,57.8,56.4,91,90,88,29.98,29.95,0,0,0,0.10
2013-10-31,62.6,58.3,-27.9,59.8,55.8,-29.4,93,92,90,29.95,29.30,0,0,0,1.28
2013-11-1,53.2,46.2,41.8,50.9,42.2,37.0,92,86,80,29.76,29.39,0,0,0,0.02
2013-11-2,45.0,43.0,38.2,40.9,39.1,33.5,87,86,82,30.12,29.75,0,0,0,0.09
2013-11-3,48.2,41.2,33.6,40.7,35.8,29.8,89,81,71,30.36,30.12,0,0,0,0.00
2013-11-4,52.2,44.4,38.3,41.5,36.5,32.7,81,74,63,30.37,30.26,0,0,0,0.00
2013-11-5,54.7,48.8,42.1,46.4,42.3,36.3,86,78,70,30.37,30.13,0,0,0,0.02
2013-11-6,55.2,50.1,41.2,50.3,44.5,37.6,87,81,68,30.13,29.86,0,0,0,0.18
2013-11-7,44.2,39.3,31.6,37.6,31.6,26.7,87,74,55,30.27,30.11,0,0,0,0.00
2013-11-8,47.4,37.2,28.8,35.4,29.4,23.9,85,74,61,30.36,30.16,0,0,0,0.00
2013-11-9,58.8,48.7,39.9,41.3,35.9,31.0,71,62,50,30.16,29.95,0,0,0,0.00
2013-11-10,47.5,39.8,30.9,36.3,28.6,22.6,74,64,54,30.34,30.07,0,0,0,0.00
2013-11-11,45.7,38.8,29.1,35.8,30.5,23.4,79,72,61,30.38,30.08,3,0,3,0.02
2013-11-12,22.6,22.2,22.1,16.5,16.1,16.0,77,77,77,30.55,30.51,0,0,0,0.00
2013-11-13,37.2,31.5,21.6,21.9,19.4,16.0,79,61,52,30.59,30.30,0,0,0,0.00
2013-11-14,30.9,30.7,30.6,20.5,20.2,19.8,65,65,64,30.30,30.27,0,0,0,0.00
2013-11-15,52.0,44.0,37.4,33.9,29.2,24.7,65,56,49,30.10,30.04,0,0,0,0.00
2013-11-16,58.3,49.0,37.9,54.1,43.6,29.1,86,82,70,30.06,29.78,86,4,86,0.00
2013-11-17,61.7,55.0,46.9,57.8,49.5,38.8,89,82,73,29.79,29.36,88,6,88,0.27
2013-11-18,46.6,39.9,33.6,38.8,31.2,25.5,81,71,62,30.21,29.74,60,4,60,0.00
2013-11-19,40.5,32.6,27.0,30.3,24.7,9.4,80,73,62,30.37,30.21,100,1,100,0.00
2013-11-20,43.0,34.2,25.2,34.3,26.5,19.1,81,73,65,30.36,30.18,8,1,8,0.00
2013-11-21,47.3,43.9,38.4,44.3,38.6,17.2,89,82,42,30.27,30.18,8,1,8,0.41
2013-11-22,47.7,39.9,29.3,44.6,36.6,25.4,89,88,86,30.44,30.17,7,0,7,0.10
2013-11-23,30.3,26.4,21.6,25.8,21.8,15.4,87,83,73,30.57,30.38,5,0,5,0.00
2013-11-24,26.1,20.2,16.3,16.7,12.4,9.4,80,72,67,30.62,30.48,0,0,0,0.00
2013-11-25,31.3,26.6,16.3,21.5,17.4,9.4,77,68,63,30.48,30.15,60,2,60,0.00
2013-11-26,34.3,29.5,27.7,27.1,23.3,21.4,80,77,73,30.17,29.98,0,0,0,0.00
2013-11-27,27.7,23.7,19.4,22.0,17.7,13.1,81,78,73,30.27,30.02,87,2,87,0.00
2013-11-28,34.3,25.0,20.3,20.6,15.7,-2.7,75,68,31,30.44,30.22,8,1,8,0.00
2013-11-29,35.2,27.2,16.5,27.0,18.2,9.9,84,69,60,30.63,30.44,86,1,86,0.00
2013-11-30,48.1,34.1,27.5,31.3,24.3,8.6,79,68,39,30.49,30.13,11,1,11,0.00
2013-12-1,48.0,36.2,28.2,37.7,28.4,11.9,81,73,67,30.13,29.99,7,0,7,0.00
2013-12-2,40.1,35.0,31.8,31.8,28.2,25.3,83,76,70,30.00,29.83,7,0,7,0.02
2013-12-3,47.9,40.7,34.7,43.5,36.8,30.2,88,86,83,29.85,29.77,9,1,9,0.00
2013-12-4,56.8,49.1,39.2,54.0,46.1,35.5,91,90,86,29.85,29.65,11,1,11,0.02
2013-12-5,55.8,36.7,25.5,52.9,31.6,19.6,90,82,76,30.21,29.69,11,3,11,0.00
2013-12-6,26.2,25.8,25.5,19.9,19.8,19.6,78,78,77,30.28,30.20,4,1,4,0.00
2013-12-7,20.1,15.3,13.8,12.9,9.6,8.5,79,78,73,30.59,30.57,2,1,2,0.00
2013-12-8,20.3,19.8,19.4,12.7,12.3,11.9,72,72,72,30.27,30.26,2,1,2,0.00
2013-12-10,21.4,14.5,5.7,11.4,6.4,-1.2,76,70,61,30.31,30.08,8,2,8,0.00
2013-12-11,22.8,16.7,7.7,16.4,9.7,0.5,77,74,69,30.51,30.30,4,0,4,0.00
2013-12-12,7.3,5.2,3.4,0.5,-1.7,-3.7,73,73,72,30.54,30.51,4,0,4,0.00
2013-12-13,32.4,25.4,13.8,21.9,15.8,5.3,76,67,59,30.27,30.13,7,1,7,0.00
2013-12-15,16.0,16.0,16.0,10.3,10.3,10.3,78,78,78,30.10,30.07,4,0,4,0.00
2013-12-16,20.1,15.5,13.5,15.2,10.4,8.1,81,80,77,30.15,30.02,0,0,0,0.00
2013-12-17,26.1,25.0,23.9,21.8,20.8,19.8,84,84,84,30.09,30.02,1,0,1,0.00
2013-12-18,20.9,20.2,19.7,14.8,14.2,13.7,77,77,77,30.24,30.23,0,0,0,0.00
2013-12-19,37.8,35.5,33.6,31.8,27.4,23.7,79,73,67,29.95,29.94,4,2,4,0.00
2013-12-20,54.7,54.0,53.1,52.4,51.8,51.0,93,92,92,29.76,29.75,5,2,5,0.00
2013-12-21,36.3,34.8,29.7,33.7,32.3,27.3,91,91,90,29.77,29.54,6,0,6,0.14
2013-12-22,34.3,33.0,28.7,31.9,30.1,16.4,91,90,48,30.02,29.51,10,1,10,0.00
2013-12-23,26.2,19.5,13.3,22.6,14.6,7.4,86,81,77,30.42,30.26,9,2,9,0.00
2013-12-24,13.8,8.6,3.0,7.9,3.1,-2.1,80,78,75,30.55,30.42,30,2,30,0.00
2013-12-25,26.8,22.8,17.7,22.2,17.4,12.0,83,80,77,30.43,30.13,7,1,7,0.00
2013-12-26,32.4,27.0,21.5,25.4,21.6,13.9,87,80,72,30.33,30.10,7,2,7,0.00
2013-12-27,43.8,35.6,32.4,33.3,28.0,25.3,80,74,66,30.35,30.19,6,2,6,0.00
2013-12-28,47.1,39.4,32.4,35.2,31.1,27.4,84,72,63,30.18,29.95,8,1,8,0.00
2013-12-29,94.7,33.6,25.5,84.6,27.0,20.2,80,77,68,30.09,29.79,7,1,7,0.00
2013-12-30,25.5,19.0,-0.2,20.2,11.8,-5.2,80,73,65,30.29,30.08,4,0,4,0.00
2013-12-31,20.5,15.9,11.3,13.1,9.4,5.5,79,75,70,30.37,30.16,8,0,8,0.00
2014-1-1,22.8,19.1,16.2,17.6,13.9,11.5,82,80,79,30.27,30.10,2,0,2,0.00
2014-1-2,16.3,13.8,8.4,12.0,9.0,2.4,83,81,76,30.29,30.00,72,4,72,0.00